Lotbiniere, Canada
Current Conditions -  °F | °C
As of 12:00 PM on Thursday 30 Oct 2014 (Local Time) from CYQB Reporting Station
Broken Clouds Broken Clouds  
Wind Chill: 38°   Ceiling: 3300
Heat Index: 45°   Visibility: 30mi
Dew Point: 36°   Wind: 14mph
Humidity: 71%   Direction: 210°SSW
Pressure: 29.9"   Gusts: NA
Location:  46.62°N, 71.93°W
Report Text: CYQB 301600Z 21012KT 30SM BKN033 07/02 A2990 RMK SC6 SLP128
Loading
Personal Weather Stations






























Interactive Weather Map
Tropical Storm Tracking
New forecast layout! Learn more

10-Day Weather Forecast

Advertisements
Track Severe Weather on mobile